Time;durP1;ratioP1;P1;durP2;ratioP2;P2;SDS_P1;SDS_P2;PMS_P1;PMS_P2;Temp;Humidity;BMP_temperature;BMP_pressure;BME280_temperature;BME280_humidity;BME280_pressure;Samples;Min_cycle;Max_cycle;Signal;HPM_P1;HPM_P2
2022/04/07 00:02:46;;;;;;;8.57;4.65;;;;;;;;;;6315937;22;20169;-83
2022/04/07 00:05:51;;;;;;;10.45;4.90;;;;;;;;;;6313175;22;20165;-82
2022/04/07 00:08:57;;;;;;;8.77;4.60;;;;;;;;;;6314693;22;20718;-84
2022/04/07 00:12:04;;;;;;;10.85;5.00;;;;;;;;;;6314621;22;20166;-84
2022/04/07 00:15:09;;;;;;;6.68;4.22;;;;;;;;;;6295891;22;20169;-84
2022/04/07 00:18:15;;;;;;;10.90;4.93;;;;;;;;;;6314077;22;20189;-84
2022/04/07 00:21:25;;;;;;;8.77;4.60;;;;;;;;;;6313447;22;20197;-84
2022/04/07 00:24:31;;;;;;;10.77;4.40;;;;;;;;;;6297484;22;20168;-85
2022/04/07 00:27:37;;;;;;;9.73;4.60;;;;;;;;;;6315989;22;20227;-86
2022/04/07 00:30:43;;;;;;;7.13;4.22;;;;;;;;;;6298208;22;20204;-86
2022/04/07 00:33:48;;;;;;;9.70;4.50;;;;;;;;;;6313930;22;20169;-85
2022/04/07 00:36:53;;;;;;;9.13;5.05;;;;;;;;;;6296183;22;20158;-85
2022/04/07 00:39:59;;;;;;;10.43;5.35;;;;;;;;;;6313779;22;20176;-85
2022/04/07 00:43:05;;;;;;;8.05;5.10;;;;;;;;;;6315574;22;20599;-85
2022/04/07 00:46:10;;;;;;;9.40;5.10;;;;;;;;;;6297207;22;20198;-83
2022/04/07 00:49:15;;;;;;;7.72;5.40;;;;;;;;;;6317389;22;20599;-86
2022/04/07 00:52:20;;;;;;;7.82;4.50;;;;;;;;;;6316556;22;20172;-85
2022/04/07 00:55:26;;;;;;;9.25;4.60;;;;;;;;;;6313933;22;20180;-85
2022/04/07 00:58:34;;;;;;;10.60;5.63;;;;;;;;;;6313355;22;20168;-85
2022/04/07 01:01:38;;;;;;;8.57;4.53;;;;;;;;;;6314378;22;20169;-86
2022/04/07 01:04:43;;;;;;;11.38;4.93;;;;;;;;;;6314698;22;20170;-86
2022/04/07 01:07:49;;;;;;;8.30;5.05;;;;;;;;;;6313798;22;20219;-85
2022/04/07 01:10:56;;;;;;;8.38;5.20;;;;;;;;;;6295507;22;20153;-86
2022/04/07 01:14:03;;;;;;;9.63;5.45;;;;;;;;;;6297547;22;20173;-85
2022/04/07 01:17:08;;;;;;;10.77;5.38;;;;;;;;;;6297996;22;20188;-85
2022/04/07 01:20:13;;;;;;;12.93;5.05;;;;;;;;;;6297507;22;20189;-85
2022/04/07 01:23:18;;;;;;;11.48;5.55;;;;;;;;;;6316929;22;20165;-86
2022/04/07 01:26:25;;;;;;;8.75;5.07;;;;;;;;;;6300016;22;20671;-84
2022/04/07 01:29:30;;;;;;;10.77;5.28;;;;;;;;;;6297791;22;20165;-84
2022/04/07 01:32:38;;;;;;;11.07;5.15;;;;;;;;;;6297709;22;20181;-84
2022/04/07 01:35:43;;;;;;;9.73;5.40;;;;;;;;;;6317048;22;20177;-84
2022/04/07 01:38:48;;;;;;;7.22;5.07;;;;;;;;;;6316889;22;20165;-84
2022/04/07 01:41:55;;;;;;;9.10;5.45;;;;;;;;;;6317252;22;20169;-83
2022/04/07 01:45:02;;;;;;;8.50;5.32;;;;;;;;;;6316128;22;20160;-83
2022/04/07 01:48:09;;;;;;;10.23;5.43;;;;;;;;;;6297343;22;20188;-84
2022/04/07 01:51:14;;;;;;;8.30;5.57;;;;;;;;;;6297028;22;20168;-84
2022/04/07 01:54:19;;;;;;;10.18;5.35;;;;;;;;;;6297980;22;20199;-84
2022/04/07 01:57:25;;;;;;;9.27;5.32;;;;;;;;;;6298077;22;20215;-85
2022/04/07 02:00:31;;;;;;;10.15;5.65;;;;;;;;;;6316431;22;20267;-83
2022/04/07 02:03:36;;;;;;;9.65;5.70;;;;;;;;;;6315141;22;20169;-83
2022/04/07 02:06:41;;;;;;;10.10;5.60;;;;;;;;;;6296233;22;20169;-84
2022/04/07 02:09:46;;;;;;;12.43;5.47;;;;;;;;;;6315563;22;20567;-83
2022/04/07 02:12:52;;;;;;;11.77;6.70;;;;;;;;;;6297425;22;20165;-84
2022/04/07 02:15:57;;;;;;;8.10;4.95;;;;;;;;;;6314808;22;20165;-84
2022/04/07 02:19:02;;;;;;;11.57;5.38;;;;;;;;;;6315667;22;20192;-83
2022/04/07 02:22:07;;;;;;;8.52;5.65;;;;;;;;;;6295014;22;20165;-84
2022/04/07 02:25:12;;;;;;;8.52;5.47;;;;;;;;;;6311850;22;20148;-83
2022/04/07 02:28:19;;;;;;;14.90;6.40;;;;;;;;;;6315113;22;20161;-84
2022/04/07 02:31:23;;;;;;;9.13;5.20;;;;;;;;;;6294752;22;20736;-85
2022/04/07 02:34:28;;;;;;;8.82;4.90;;;;;;;;;;6313602;22;20303;-85
2022/04/07 02:37:33;;;;;;;8.85;5.38;;;;;;;;;;6312163;22;20164;-85
2022/04/07 02:40:38;;;;;;;8.93;5.30;;;;;;;;;;6311861;22;20195;-85
2022/04/07 02:43:46;;;;;;;10.95;5.75;;;;;;;;;;6294051;22;20169;-85
2022/04/07 02:46:51;;;;;;;14.57;5.40;;;;;;;;;;6311259;22;20173;-85
2022/04/07 02:49:56;;;;;;;8.77;5.50;;;;;;;;;;6293328;22;20675;-85
2022/04/07 02:53:01;;;;;;;9.20;5.13;;;;;;;;;;6312025;22;20169;-85
2022/04/07 02:56:06;;;;;;;9.38;4.90;;;;;;;;;;6310233;22;20181;-86
2022/04/07 02:59:12;;;;;;;10.65;5.63;;;;;;;;;;6312233;22;20212;-86
2022/04/07 03:02:18;;;;;;;8.75;5.20;;;;;;;;;;6312408;22;20183;-84
2022/04/07 03:05:22;;;;;;;9.65;5.43;;;;;;;;;;6311254;22;20172;-86
2022/04/07 03:08:27;;;;;;;7.60;4.75;;;;;;;;;;6294168;22;20165;-85
2022/04/07 03:11:33;;;;;;;9.20;5.40;;;;;;;;;;6311627;22;20509;-85
2022/04/07 03:14:39;;;;;;;10.02;5.78;;;;;;;;;;6311565;22;20169;-85
2022/04/07 03:17:44;;;;;;;10.85;5.72;;;;;;;;;;6312514;22;20188;-86
2022/04/07 03:20:49;;;;;;;16.15;6.15;;;;;;;;;;6292811;22;20189;-86
2022/04/07 03:23:54;;;;;;;10.63;5.70;;;;;;;;;;6294315;22;20286;-84
2022/04/07 22:32:55;;;;;;;1.73;0.77;;;;;;;;;;6251748;22;20197;-86
2022/04/07 22:36:01;;;;;;;8.30;1.33;;;;;;;;;;6313307;22;20161;-85
2022/04/07 22:39:06;;;;;;;10.63;1.40;;;;;;;;;;6312509;22;20168;-84
2022/04/07 22:42:11;;;;;;;9.77;1.60;;;;;;;;;;6315299;22;20287;-85
2022/04/07 22:45:17;;;;;;;4.60;1.27;;;;;;;;;;6295438;22;20169;-85
2022/04/07 22:48:23;;;;;;;3.47;1.17;;;;;;;;;;6296578;22;20287;-85
2022/04/07 22:51:28;;;;;;;7.50;1.23;;;;;;;;;;6313424;22;20632;-85
2022/04/07 22:54:33;;;;;;;5.20;1.07;;;;;;;;;;6313759;22;20287;-85
2022/04/07 22:57:38;;;;;;;3.97;1.10;;;;;;;;;;6312065;22;20173;-84
2022/04/07 23:00:44;;;;;;;10.90;1.53;;;;;;;;;;6312987;22;20180;-85
2022/04/07 23:03:50;;;;;;;6.47;1.43;;;;;;;;;;6296457;22;20499;-86
2022/04/07 23:06:55;;;;;;;8.83;1.17;;;;;;;;;;6311427;22;20172;-85
2022/04/07 23:10:00;;;;;;;7.57;1.70;;;;;;;;;;6314356;22;20165;-86
2022/04/07 23:13:06;;;;;;;5.30;0.80;;;;;;;;;;6311491;22;20189;-85
2022/04/07 23:16:10;;;;;;;3.23;1.07;;;;;;;;;;6311546;22;20145;-86
2022/04/07 23:19:19;;;;;;;8.23;1.20;;;;;;;;;;6312157;22;20184;-86
2022/04/07 23:22:24;;;;;;;7.57;1.30;;;;;;;;;;6294331;22;20552;-85
2022/04/07 23:25:30;;;;;;;8.30;1.40;;;;;;;;;;6294605;22;20175;-85
2022/04/07 23:28:34;;;;;;;9.40;1.40;;;;;;;;;;6311915;22;20239;-86
2022/04/07 23:31:39;;;;;;;10.67;1.50;;;;;;;;;;6313225;22;20618;-85
2022/04/07 23:34:47;;;;;;;7.53;1.40;;;;;;;;;;6314631;22;20230;-86
2022/04/07 23:37:52;;;;;;;6.10;1.20;;;;;;;;;;6313780;22;20233;-84
2022/04/07 23:40:57;;;;;;;9.23;1.37;;;;;;;;;;6313567;22;20655;-86
2022/04/07 23:44:02;;;;;;;8.57;1.83;;;;;;;;;;6313092;22;20187;-85
2022/04/07 23:47:07;;;;;;;8.77;1.40;;;;;;;;;;6311165;22;20235;-84
2022/04/07 23:50:16;;;;;;;7.60;1.50;;;;;;;;;;6296131;22;20173;-86
2022/04/07 23:53:22;;;;;;;7.70;1.27;;;;;;;;;;6314758;22;20169;-86
2022/04/07 23:56:26;;;;;;;14.47;1.80;;;;;;;;;;6294247;22;20261;-85
2022/04/07 23:59:31;;;;;;;5.10;1.20;;;;;;;;;;6295429;22;20207;-86
